createdAt,value
2023-08-12T00:00:23.301Z,98750.06
2023-08-12T00:02:50.281Z,98740.84
2023-08-12T00:05:17.341Z,98743.72
2023-08-12T00:07:44.492Z,98740.06
2023-08-12T00:10:13.191Z,98743.50
2023-08-12T00:12:40.577Z,98738.47
2023-08-12T00:15:09.521Z,98729.63
2023-08-12T00:17:38.558Z,98738.91
2023-08-12T00:20:11.962Z,98732.72
2023-08-12T00:22:39.981Z,98729.03
2023-08-12T00:25:07.755Z,98730.25
2023-08-12T00:27:35.384Z,98734.97
2023-08-12T00:30:02.592Z,98728.47
2023-08-12T00:32:29.754Z,98727.47
2023-08-12T00:34:56.902Z,98721.06
2023-08-12T00:37:24.265Z,98729.00
2023-08-12T00:39:51.253Z,98725.44
2023-08-12T00:42:18.292Z,98727.84
2023-08-12T00:44:45.228Z,98725.44
2023-08-12T00:47:12.394Z,98728.69
2023-08-12T00:49:41.491Z,98727.94
2023-08-12T00:52:08.468Z,98729.63
2023-08-12T00:54:35.419Z,98722.69
2023-08-12T00:57:02.628Z,98729.03
2023-08-12T00:59:30.388Z,98726.56
2023-08-12T01:01:57.460Z,98727.81
2023-08-12T01:04:24.438Z,98718.53
2023-08-12T01:06:51.449Z,98725.91
2023-08-12T01:09:18.517Z,98726.81
2023-08-12T01:12:07.947Z,98717.88
2023-08-12T01:14:47.834Z,98721.44
2023-08-12T01:17:15.987Z,98713.16
2023-08-12T01:19:44.266Z,98718.41
2023-08-12T01:22:12.933Z,98717.56
2023-08-12T01:24:41.512Z,98718.63
2023-08-12T01:27:10.822Z,98711.78
2023-08-12T01:29:43.226Z,98717.22
2023-08-12T01:32:42.304Z,98718.75
2023-08-12T01:35:15.356Z,98707.94
2023-08-12T01:37:42.624Z,98711.09
2023-08-12T01:40:11.210Z,98717.19
2023-08-12T01:42:40.680Z,98722.91
2023-08-12T01:45:08.200Z,98723.88
2023-08-12T01:47:35.276Z,98721.03
2023-08-12T01:50:02.191Z,98711.75
2023-08-12T01:52:30.249Z,98719.75
2023-08-12T01:54:57.307Z,98710.81
2023-08-12T01:57:24.223Z,98709.91
2023-08-12T01:59:52.376Z,98716.22
2023-08-12T02:02:19.299Z,98705.41
2023-08-12T02:04:46.177Z,98708.16
2023-08-12T02:07:13.490Z,98707.91
2023-08-12T02:09:40.669Z,98707.31
2023-08-12T02:12:08.172Z,98715.19
2023-08-12T02:14:35.118Z,98708.19
2023-08-12T02:17:02.098Z,98710.78
2023-08-12T02:19:29.007Z,98698.47
2023-08-12T02:21:55.976Z,98705.16
2023-08-12T02:24:22.898Z,98707.06
2023-08-12T02:26:49.866Z,98698.59
2023-08-12T02:29:16.826Z,98701.22
2023-08-12T02:31:43.942Z,98699.25
2023-08-12T02:34:11.410Z,98702.97
2023-08-12T02:36:38.392Z,98702.19
2023-08-12T02:39:06.081Z,98696.94
2023-08-12T02:41:33.024Z,98698.47
2023-08-12T02:43:59.900Z,98694.38
2023-08-12T02:46:26.875Z,98701.94
2023-08-12T02:48:53.827Z,98706.06
2023-08-12T02:51:20.770Z,98702.50
2023-08-12T02:53:47.682Z,98704.13
2023-08-12T02:56:14.703Z,98698.37
2023-08-12T02:58:41.643Z,98698.28
2023-08-12T03:01:09.254Z,98698.41
2023-08-12T03:03:36.297Z,98697.31
2023-08-12T03:06:03.387Z,98701.16
2023-08-12T03:08:30.356Z,98691.97
2023-08-12T03:11:03.917Z,98693.31
2023-08-12T03:13:31.318Z,98692.81
2023-08-12T03:15:58.434Z,98691.53
2023-08-12T03:18:25.439Z,98689.00
2023-08-12T03:20:52.359Z,98688.81
2023-08-12T03:23:19.318Z,98698.31
2023-08-12T03:25:48.520Z,98695.59
2023-08-12T03:28:15.557Z,98710.25
2023-08-12T03:30:42.696Z,98702.44
2023-08-12T03:33:09.656Z,98711.34
2023-08-12T03:35:36.593Z,98711.13
2023-08-12T03:38:03.611Z,98720.66
2023-08-12T03:40:30.583Z,98721.59
2023-08-12T03:42:57.538Z,98723.84
2023-08-12T03:45:24.487Z,98725.12
2023-08-12T03:47:51.526Z,98719.59
2023-08-12T03:50:18.521Z,98730.63
2023-08-12T03:52:45.511Z,98717.09
2023-08-12T03:55:12.597Z,98725.81
2023-08-12T03:57:39.500Z,98726.34
2023-08-12T04:00:09.199Z,98729.72
2023-08-12T04:02:36.470Z,98722.22
2023-08-12T04:05:03.397Z,98712.53
2023-08-12T04:07:30.329Z,98721.81
2023-08-12T04:09:57.217Z,98720.94
2023-08-12T04:12:24.149Z,98723.53
2023-08-12T04:14:51.095Z,98718.03
2023-08-12T04:17:18.072Z,98722.00
2023-08-12T04:19:45.023Z,98716.41
2023-08-12T04:22:12.064Z,98724.84
2023-08-12T04:24:39.373Z,98730.09
2023-08-12T04:27:06.353Z,98722.66
2023-08-12T04:29:33.472Z,98729.94
2023-08-12T04:32:00.512Z,98727.06
2023-08-12T04:34:27.453Z,98726.28
2023-08-12T04:36:54.383Z,98725.47
2023-08-12T04:39:21.256Z,98725.16
2023-08-12T04:41:48.206Z,98726.28
2023-08-12T04:44:15.224Z,98723.53
2023-08-12T04:46:42.286Z,98728.16
2023-08-12T04:49:09.202Z,98723.13
2023-08-12T04:51:36.150Z,98723.81
2023-08-12T04:54:03.392Z,98732.62
2023-08-12T04:56:30.478Z,98732.09
2023-08-12T04:58:57.549Z,98733.78
2023-08-12T05:01:24.526Z,98734.28
2023-08-12T05:03:51.525Z,98740.91
2023-08-12T05:06:18.480Z,98738.91
2023-08-12T05:08:45.426Z,98738.72
2023-08-12T05:11:12.329Z,98744.75
2023-08-12T05:13:39.322Z,98733.81
2023-08-12T05:16:06.288Z,98732.84
2023-08-12T05:18:33.238Z,98743.25
2023-08-12T05:21:00.350Z,98738.41
2023-08-12T05:23:27.912Z,98739.84
2023-08-12T05:25:55.705Z,98745.91
2023-08-12T05:28:22.929Z,98743.16
2023-08-12T05:30:50.080Z,98745.56
2023-08-12T05:33:17.175Z,98739.69
2023-08-12T05:35:44.155Z,98740.03
2023-08-12T05:38:11.145Z,98739.94
2023-08-12T05:40:38.076Z,98742.78
2023-08-12T05:43:05.047Z,98734.41
2023-08-12T05:45:32.014Z,98741.56
2023-08-12T05:47:59.216Z,98734.63
2023-08-12T05:50:26.160Z,98738.09
2023-08-12T05:52:53.202Z,98742.41
2023-08-12T05:55:20.150Z,98733.56
2023-08-12T05:57:47.064Z,98734.31
2023-08-12T06:00:14.204Z,98741.97
2023-08-12T06:02:41.235Z,98741.75
2023-08-12T06:05:08.947Z,98740.75
2023-08-12T06:07:35.933Z,98741.81
2023-08-12T06:10:03.357Z,98745.78
2023-08-12T06:12:30.296Z,98741.75
2023-08-12T06:14:57.249Z,98740.69
2023-08-12T06:17:24.218Z,98736.53
2023-08-12T06:19:51.160Z,98740.06
2023-08-12T06:22:18.094Z,98745.03
2023-08-12T06:24:45.242Z,98743.94
2023-08-12T06:27:12.178Z,98741.66
2023-08-12T06:29:39.139Z,98734.16
2023-08-12T06:32:06.565Z,98741.13
2023-08-12T06:34:33.526Z,98737.75
2023-08-12T06:37:00.416Z,98737.63
2023-08-12T06:39:27.369Z,98739.56
2023-08-12T06:41:54.328Z,98736.50
2023-08-12T06:44:21.262Z,98733.06
2023-08-12T06:46:48.167Z,98734.50
2023-08-12T06:49:15.164Z,98737.38
2023-08-12T06:51:42.462Z,98738.53
2023-08-12T06:54:09.441Z,98740.81
2023-08-12T06:56:36.379Z,98738.41
2023-08-12T06:59:03.348Z,98737.56
2023-08-12T07:01:30.369Z,98736.97
2023-08-12T07:03:57.441Z,98731.69
2023-08-12T07:06:24.340Z,98734.56
2023-08-12T07:08:51.300Z,98743.37
2023-08-12T07:11:18.247Z,98737.22
2023-08-12T07:13:47.652Z,98733.81
2023-08-12T07:16:14.863Z,98729.38
2023-08-12T07:18:41.906Z,98737.72
2023-08-12T07:21:08.950Z,98735.69
2023-08-12T07:23:35.902Z,98735.28
2023-08-12T07:26:02.860Z,98736.09
2023-08-12T07:28:29.794Z,98736.37
2023-08-12T07:30:56.724Z,98731.62
2023-08-12T07:33:23.772Z,98730.44
2023-08-12T07:35:50.738Z,98732.19
2023-08-12T07:38:17.706Z,98736.56
2023-08-12T07:40:44.741Z,98734.09
2023-08-12T07:43:11.698Z,98738.13
2023-08-12T07:45:38.642Z,98737.13
2023-08-12T07:48:05.996Z,98741.72
2023-08-12T07:50:33.019Z,98738.63
2023-08-12T07:53:00.088Z,98732.31
2023-08-12T07:55:27.636Z,98734.81
2023-08-12T07:57:54.748Z,98732.12
2023-08-12T08:00:21.884Z,98737.19
2023-08-12T08:02:49.156Z,98728.19
2023-08-12T08:05:16.339Z,98731.84
2023-08-12T08:07:43.381Z,98727.19
2023-08-12T08:10:10.970Z,98731.25
2023-08-12T08:12:37.998Z,98732.34
2023-08-12T08:15:05.380Z,98732.03
2023-08-12T08:17:32.411Z,98729.53
2023-08-12T08:19:59.500Z,98728.28
2023-08-12T08:22:26.476Z,98733.31
2023-08-12T08:24:53.492Z,98736.31
2023-08-12T08:27:20.883Z,98729.06
2023-08-12T08:29:47.870Z,98728.84
2023-08-12T08:32:14.969Z,98731.47
2023-08-12T08:34:41.861Z,98727.28
2023-08-12T08:37:08.795Z,98729.34
2023-08-12T08:39:35.748Z,98726.59
2023-08-12T08:42:04.219Z,98729.13
2023-08-12T08:44:32.557Z,98725.63
2023-08-12T08:47:00.698Z,98728.22
2023-08-12T08:49:27.936Z,98729.28
2023-08-12T08:51:54.889Z,98723.50
2023-08-12T08:54:22.573Z,98730.16
2023-08-12T08:56:54.413Z,98726.47
2023-08-12T08:59:25.729Z,98730.34
2023-08-12T09:01:53.105Z,98731.94
2023-08-12T09:04:23.133Z,98731.41
2023-08-12T09:06:51.379Z,98738.28
2023-08-12T09:09:21.273Z,98735.25
2023-08-12T09:11:49.302Z,98728.44
2023-08-12T09:14:16.404Z,98735.84
2023-08-12T09:16:43.327Z,98730.41
2023-08-12T09:19:10.614Z,98721.44
2023-08-12T09:21:38.011Z,98722.22
2023-08-12T09:24:07.539Z,98721.28
2023-08-12T09:26:34.558Z,98720.03
2023-08-12T09:29:01.871Z,98721.72
2023-08-12T09:31:31.840Z,98720.37
2023-08-12T09:34:00.169Z,98723.72
2023-08-12T09:36:31.333Z,98723.41
2023-08-12T09:38:59.584Z,98709.91
2023-08-12T09:41:28.845Z,98718.69
2023-08-12T09:43:57.657Z,98716.66
2023-08-12T09:46:25.378Z,98721.44
2023-08-12T09:48:55.741Z,98717.59
2023-08-12T09:51:23.687Z,98715.31
2023-08-12T09:53:51.355Z,98719.75
2023-08-12T09:56:24.523Z,98715.91
2023-08-12T09:58:51.897Z,98704.72
2023-08-12T10:01:22.144Z,98716.34
2023-08-12T10:03:52.789Z,98727.47
2023-08-12T10:06:19.985Z,98715.34
2023-08-12T10:08:50.556Z,98714.63
2023-08-12T10:11:17.782Z,98708.09
2023-08-12T10:13:44.837Z,98706.63
2023-08-12T10:16:13.021Z,98716.25
2023-08-12T10:18:41.729Z,98710.78
2023-08-12T10:21:15.012Z,98708.06
2023-08-12T10:23:45.899Z,98696.53
2023-08-12T10:26:14.878Z,98703.53
2023-08-12T10:28:42.102Z,98699.44
2023-08-12T10:31:09.123Z,98699.13
2023-08-12T10:33:42.839Z,98690.72
2023-08-12T10:36:10.847Z,98701.25
2023-08-12T10:38:38.011Z,98693.91
2023-08-12T10:41:24.315Z,98693.19
2023-08-12T10:44:02.848Z,98699.25
2023-08-12T10:46:37.032Z,98689.66
2023-08-12T10:49:07.191Z,98683.16
2023-08-12T10:51:50.817Z,98678.78
2023-08-12T10:54:24.492Z,98675.44
2023-08-12T10:57:12.706Z,98670.34
2023-08-12T10:59:45.877Z,98674.53
2023-08-12T11:02:30.515Z,98681.03
2023-08-12T11:05:01.569Z,98671.88
2023-08-12T11:07:45.999Z,98664.97
2023-08-12T11:10:17.047Z,98665.94
2023-08-12T11:12:50.554Z,98662.91
2023-08-12T11:15:17.680Z,98670.13
2023-08-12T11:17:44.654Z,98659.22
2023-08-12T11:20:13.080Z,98658.16
2023-08-12T11:22:42.359Z,98662.88
2023-08-12T11:25:11.127Z,98659.81
2023-08-12T11:27:39.495Z,98656.09
2023-08-12T11:30:07.167Z,98648.91
2023-08-12T11:32:34.147Z,98658.44
2023-08-12T11:35:01.164Z,98652.37
2023-08-12T11:37:28.208Z,98642.94
2023-08-12T11:39:55.164Z,98641.53
2023-08-12T11:42:22.201Z,98635.72
2023-08-12T11:44:49.166Z,98637.94
2023-08-12T11:47:16.065Z,98641.63
2023-08-12T11:49:42.996Z,98639.72
2023-08-12T11:52:12.139Z,98641.03
2023-08-12T11:54:40.370Z,98629.44
2023-08-12T11:57:07.511Z,98626.41
2023-08-12T11:59:34.470Z,98628.72
2023-08-12T12:02:03.930Z,98619.41
2023-08-12T12:04:33.012Z,98624.53
2023-08-12T12:07:01.263Z,98614.47
2023-08-12T12:09:30.745Z,98620.34
2023-08-12T12:11:57.678Z,98613.13
2023-08-12T12:14:26.877Z,98616.00
2023-08-12T12:16:53.821Z,98614.13
2023-08-12T12:19:24.156Z,98605.41
2023-08-12T12:21:52.734Z,98602.69
2023-08-12T12:24:20.746Z,98600.69
2023-08-12T12:26:51.055Z,98599.41
2023-08-12T12:29:17.952Z,98606.72
2023-08-12T12:31:44.848Z,98609.88
2023-08-12T12:34:11.824Z,98606.87
2023-08-12T12:36:40.061Z,98613.25
2023-08-12T12:39:07.462Z,98606.94
2023-08-12T12:41:35.005Z,98599.19
2023-08-12T12:44:05.020Z,98600.78
2023-08-12T12:46:33.035Z,98601.72
2023-08-12T12:49:00.031Z,98605.91
2023-08-12T12:51:27.079Z,98589.19
2023-08-12T12:53:54.261Z,98583.53
2023-08-12T12:56:21.300Z,98591.13
2023-08-12T12:58:48.701Z,98585.91
2023-08-12T13:01:15.821Z,98574.06
2023-08-12T13:03:42.937Z,98582.53
2023-08-12T13:06:10.925Z,98584.72
2023-08-12T13:08:38.069Z,98572.53
2023-08-12T13:11:04.991Z,98579.50
2023-08-12T13:13:31.996Z,98569.94
2023-08-12T13:15:59.034Z,98570.47
2023-08-12T13:18:26.033Z,98568.84
2023-08-12T13:20:53.032Z,98568.09
2023-08-12T13:23:19.965Z,98576.44
2023-08-12T13:25:47.431Z,98563.75
2023-08-12T13:28:14.465Z,98569.44
2023-08-12T13:30:41.499Z,98564.72
2023-08-12T13:33:08.535Z,98568.69
2023-08-12T13:35:35.609Z,98558.63
2023-08-12T13:38:02.608Z,98558.56
2023-08-12T13:40:29.691Z,98559.94
2023-08-12T13:42:56.742Z,98558.97
2023-08-12T13:45:24.894Z,98546.38
2023-08-12T13:47:52.891Z,98545.50
2023-08-12T13:50:19.930Z,98547.34
2023-08-12T13:52:48.417Z,98549.75
2023-08-12T13:55:15.360Z,98547.81
2023-08-12T13:57:42.274Z,98539.50
2023-08-12T14:00:11.096Z,98541.88
2023-08-12T14:02:38.168Z,98538.25
2023-08-12T14:05:06.163Z,98534.66
2023-08-12T14:07:33.212Z,98541.22
2023-08-12T14:10:00.808Z,98536.00
2023-08-12T14:12:27.995Z,98540.69
2023-08-12T14:14:54.980Z,98526.97
2023-08-12T14:17:24.393Z,98537.03
2023-08-12T14:19:59.657Z,98526.22
2023-08-12T14:22:26.973Z,98524.06
2023-08-12T14:27:21.157Z,98530.16
2023-08-12T14:29:48.062Z,98521.00
2023-08-12T14:32:17.368Z,98527.44
2023-08-12T14:34:46.506Z,98518.53
2023-08-12T14:37:14.055Z,98517.31
2023-08-12T14:39:41.224Z,98516.47
2023-08-12T14:42:09.728Z,98518.00
2023-08-12T14:44:37.493Z,98511.56
2023-08-12T14:47:05.297Z,98518.53
2023-08-12T14:49:32.347Z,98514.03
2023-08-12T14:51:59.336Z,98504.41
2023-08-12T14:54:26.298Z,98509.38
2023-08-12T14:56:53.333Z,98508.13
2023-08-12T14:59:20.279Z,98508.59
2023-08-12T15:01:47.223Z,98507.97
2023-08-12T15:04:14.159Z,98507.66
2023-08-12T15:06:41.065Z,98510.53
2023-08-12T15:09:08.199Z,98503.97
2023-08-12T15:11:35.237Z,98496.12
2023-08-12T15:14:02.172Z,98491.53
2023-08-12T15:16:29.173Z,98492.91
2023-08-12T15:18:56.178Z,98486.69
2023-08-12T15:21:23.146Z,98489.91
2023-08-12T15:23:50.127Z,98483.41
2023-08-12T15:26:17.303Z,98484.31
2023-08-12T15:28:44.309Z,98484.72
2023-08-12T15:31:14.046Z,98476.25
2023-08-12T15:33:41.065Z,98475.06
2023-08-12T15:36:08.101Z,98472.84
2023-08-12T15:38:35.295Z,98480.09
2023-08-12T15:41:02.768Z,98468.13
2023-08-12T15:43:29.895Z,98475.72
2023-08-12T15:45:56.867Z,98466.19
2023-08-12T15:48:23.846Z,98467.84
2023-08-12T15:50:50.780Z,98465.03
2023-08-12T15:53:17.708Z,98467.94
2023-08-12T15:55:44.610Z,98453.19
2023-08-12T15:58:11.567Z,98456.56
2023-08-12T16:00:41.402Z,98457.97
2023-08-12T16:03:08.582Z,98458.97
2023-08-12T16:05:35.646Z,98448.69
2023-08-12T16:08:02.826Z,98446.84
2023-08-12T16:10:29.754Z,98449.91
2023-08-12T16:12:56.773Z,98448.44
2023-08-12T16:15:23.830Z,98453.59
2023-08-12T16:17:50.749Z,98447.81
2023-08-12T16:20:18.036Z,98453.06
2023-08-12T16:22:45.017Z,98455.75
2023-08-12T16:25:12.250Z,98448.38
2023-08-12T16:27:39.125Z,98451.38
2023-08-12T16:30:06.706Z,98454.16
2023-08-12T16:32:33.673Z,98450.06
2023-08-12T16:35:00.688Z,98455.44
2023-08-12T16:37:27.640Z,98452.19
2023-08-12T16:39:54.599Z,98459.78
2023-08-12T16:42:23.089Z,98456.59
2023-08-12T16:44:50.206Z,98458.31
2023-08-12T16:47:17.166Z,98461.28
2023-08-12T16:49:44.042Z,98461.78
2023-08-12T16:52:11.171Z,98458.69
2023-08-12T16:54:38.451Z,98451.44
2023-08-12T16:57:05.434Z,98458.69
2023-08-12T16:59:32.376Z,98462.84
2023-08-12T17:01:59.287Z,98452.66
2023-08-12T17:04:26.229Z,98451.63
2023-08-12T17:06:53.453Z,98451.16
2023-08-12T17:09:20.533Z,98447.66
2023-08-12T17:11:47.502Z,98450.50
2023-08-12T17:14:14.419Z,98453.34
2023-08-12T17:16:41.576Z,98447.66
2023-08-12T17:19:08.569Z,98448.47
2023-08-12T17:21:35.553Z,98452.91
2023-08-12T17:24:02.530Z,98458.59
2023-08-12T17:26:29.480Z,98457.75
2023-08-12T17:28:56.406Z,98454.25
2023-08-12T17:31:23.465Z,98459.97
2023-08-12T17:33:50.463Z,98458.12
2023-08-12T17:36:17.403Z,98450.56
2023-08-12T17:38:44.444Z,98452.69
2023-08-12T17:41:11.611Z,98456.81
2023-08-12T17:43:39.080Z,98456.44
2023-08-12T17:46:06.216Z,98456.28
2023-08-12T17:48:33.545Z,98451.06
2023-08-12T17:51:00.513Z,98452.78
2023-08-12T17:53:27.602Z,98450.31
2023-08-12T17:55:54.571Z,98460.41
2023-08-12T17:58:21.680Z,98459.34
2023-08-12T18:00:48.743Z,98465.62
2023-08-12T18:03:15.917Z,98464.41
2023-08-12T18:05:42.954Z,98462.03
2023-08-12T18:08:09.882Z,98467.50
2023-08-12T18:10:36.823Z,98464.19
2023-08-12T18:13:03.829Z,98466.25
2023-08-12T18:15:30.843Z,98470.78
2023-08-12T18:17:57.974Z,98466.63
2023-08-12T18:20:24.899Z,98479.22
2023-08-12T18:22:51.837Z,98484.28
2023-08-12T18:25:18.902Z,98478.78
2023-08-12T18:27:45.869Z,98475.47
2023-08-12T18:30:13.297Z,98483.63
2023-08-12T18:32:40.765Z,98478.53
2023-08-12T18:35:08.145Z,98483.03
2023-08-12T18:37:35.228Z,98477.25
2023-08-12T18:40:02.265Z,98496.50
2023-08-12T18:42:29.199Z,98484.87
2023-08-12T18:44:56.161Z,98488.84
2023-08-12T18:47:23.082Z,98495.12
2023-08-12T18:49:49.996Z,98495.22
2023-08-12T18:52:17.014Z,98492.47
2023-08-12T18:54:43.970Z,98495.22
2023-08-12T18:57:10.882Z,98493.66
2023-08-12T18:59:38.432Z,98489.75
2023-08-12T19:02:05.719Z,98492.37
2023-08-12T19:04:32.710Z,98495.97
2023-08-12T19:07:00.160Z,98494.31
2023-08-12T19:09:27.592Z,98501.88
2023-08-12T19:11:54.715Z,98502.44
2023-08-12T19:14:21.723Z,98509.19
2023-08-12T19:16:48.682Z,98508.94
2023-08-12T19:19:17.270Z,98501.38
2023-08-12T19:21:44.960Z,98503.50
2023-08-12T19:24:11.885Z,98514.03
2023-08-12T19:26:38.792Z,98509.19
2023-08-12T19:29:05.723Z,98510.72
2023-08-12T19:31:32.771Z,98511.41
2023-08-12T19:33:59.792Z,98516.84
2023-08-12T19:36:26.724Z,98513.06
2023-08-12T19:38:53.623Z,98525.91
2023-08-12T19:41:20.645Z,98510.62
2023-08-12T19:43:47.651Z,98510.13
2023-08-12T19:46:15.625Z,98520.97
2023-08-12T19:48:42.586Z,98523.00
2023-08-12T19:51:09.495Z,98528.66
2023-08-12T19:53:36.375Z,98524.63
2023-08-12T19:56:03.276Z,98530.59
2023-08-12T19:58:30.215Z,98527.59
2023-08-12T20:00:57.269Z,98532.59
2023-08-12T20:03:24.506Z,98540.13
2023-08-12T20:05:51.557Z,98540.59
2023-08-12T20:08:18.466Z,98541.53
2023-08-12T20:10:45.402Z,98540.16
2023-08-12T20:13:12.338Z,98538.81
2023-08-12T20:15:39.262Z,98534.78
2023-08-12T20:18:06.394Z,98537.03
2023-08-12T20:20:34.234Z,98539.25
2023-08-12T20:23:06.373Z,98539.66
2023-08-12T20:25:35.312Z,98542.84
2023-08-12T20:28:02.907Z,98547.56
2023-08-12T20:30:29.844Z,98542.59
2023-08-12T20:32:57.026Z,98542.59
2023-08-12T20:35:24.070Z,98540.06
2023-08-12T20:37:51.242Z,98551.69
2023-08-12T20:40:19.338Z,98549.62
2023-08-12T20:42:46.716Z,98552.81
2023-08-12T20:45:13.858Z,98545.63
2023-08-12T20:47:42.487Z,98550.41
2023-08-12T20:50:10.101Z,98550.75
2023-08-12T20:52:37.172Z,98556.78
2023-08-12T20:55:04.834Z,98560.00
2023-08-12T20:57:31.878Z,98552.56
2023-08-12T21:00:01.886Z,98545.22
2023-08-12T21:02:29.899Z,98548.00
2023-08-12T21:04:57.119Z,98548.91
2023-08-12T21:07:24.115Z,98539.25
2023-08-12T21:09:51.030Z,98543.78
2023-08-12T21:12:18.120Z,98539.25
2023-08-12T21:14:45.085Z,98538.28
2023-08-12T21:17:12.026Z,98536.34
2023-08-12T21:19:39.008Z,98530.37
2023-08-12T21:22:06.051Z,98526.50
2023-08-12T21:24:33.011Z,98528.94
2023-08-12T21:27:00.010Z,98524.94
2023-08-12T21:29:26.910Z,98526.59
2023-08-12T21:31:54.231Z,98531.72
2023-08-12T21:34:21.337Z,98533.69
2023-08-12T21:36:48.350Z,98522.87
2023-08-12T21:39:15.332Z,98522.91
2023-08-12T21:41:42.260Z,98518.81
2023-08-12T21:44:09.307Z,98522.87
2023-08-12T21:46:36.380Z,98529.63
2023-08-12T21:49:03.470Z,98518.97
2023-08-12T21:51:30.724Z,98521.19
2023-08-12T21:53:57.650Z,98518.56
2023-08-12T21:56:24.627Z,98521.56
2023-08-12T21:58:51.535Z,98509.56
2023-08-12T22:01:18.531Z,98510.56
2023-08-12T22:03:45.571Z,98510.13
2023-08-12T22:06:12.663Z,98510.06
2023-08-12T22:08:39.820Z,98505.06
2023-08-12T22:11:07.091Z,98503.38
2023-08-12T22:13:34.110Z,98508.78
2023-08-12T22:16:01.099Z,98507.69
2023-08-12T22:18:28.088Z,98510.72
2023-08-12T22:20:55.465Z,98510.59
2023-08-12T22:23:23.654Z,98514.31
2023-08-12T22:25:51.350Z,98512.38
2023-08-12T22:28:20.201Z,98520.97
2023-08-12T22:30:48.771Z,98517.53
2023-08-12T22:33:16.519Z,98516.13
2023-08-12T22:35:43.867Z,98518.19
2023-08-12T22:38:10.921Z,98522.16
2023-08-12T22:40:37.920Z,98516.63
2023-08-12T22:43:04.961Z,98513.31
2023-08-12T22:45:34.478Z,98514.69
2023-08-12T22:48:01.536Z,98508.06
2023-08-12T22:50:28.507Z,98514.81
2023-08-12T22:52:55.566Z,98508.47
2023-08-12T22:55:22.652Z,98507.78
2023-08-12T22:57:49.720Z,98507.66
2023-08-12T23:00:16.809Z,98508.00
2023-08-12T23:02:44.100Z,98509.94
2023-08-12T23:05:11.597Z,98511.91
2023-08-12T23:07:38.546Z,98517.53
2023-08-12T23:10:06.120Z,98510.38
2023-08-12T23:12:33.076Z,98509.72
2023-08-12T23:15:00.022Z,98500.59
2023-08-12T23:17:27.033Z,98505.00
2023-08-12T23:19:54.143Z,98511.75
2023-08-12T23:22:21.085Z,98512.34
2023-08-12T23:24:48.031Z,98503.78
2023-08-12T23:27:14.982Z,98500.44
2023-08-12T23:29:41.941Z,98500.84
2023-08-12T23:32:08.982Z,98506.47
2023-08-12T23:34:36.003Z,98503.69
2023-08-12T23:37:03.334Z,98512.38
2023-08-12T23:39:31.987Z,98503.09
2023-08-12T23:41:59.262Z,98508.22
2023-08-12T23:44:26.249Z,98504.47
2023-08-12T23:46:53.252Z,98500.31
2023-08-12T23:49:20.217Z,98503.41
2023-08-12T23:51:49.334Z,98496.91
2023-08-12T23:54:16.366Z,98501.81
2023-08-12T23:56:43.355Z,98507.37
2023-08-12T23:59:10.317Z,98501.50
